Time;durP1;ratioP1;P1;durP2;ratioP2;P2;SDS_P1;SDS_P2;PMS_P1;PMS_P2;Temp;Humidity;BMP_temperature;BMP_pressure;BME280_temperature;BME280_humidity;BME280_pressure;Samples;Min_cycle;Max_cycle;Signal;HPM_P1;HPM_P2
2022/06/28 00:01:35;;;;;;;;;;;17.40;99.90;;;;;;5049233;28;19992;-82
2022/06/28 00:04:01;;;;;;;;;;;;;;;;;;5048907;28;19909;-84
2022/06/28 00:06:27;;;;;;;;;;;;;;;;;;5052273;28;19935;-82
2022/06/28 00:08:53;;;;;;;;;;;;;;;;;;5042633;28;19912;-82
2022/06/28 00:11:19;;;;;;;;;;;;;;;;;;5039761;28;19924;-84
2022/06/28 00:13:44;;;;;;;;;;;;;;;;;;5052785;28;19997;-83
2022/06/28 00:16:15;;;;;;;;;;;17.00;99.90;;;;;;5051608;28;19917;-82
2022/06/28 00:18:40;;;;;;;;;;;17.20;99.90;;;;;;5051752;28;22196;-83
2022/06/28 00:21:06;;;;;;;;;;;17.00;99.90;;;;;;5048998;28;19919;-82
2022/06/28 00:23:32;;;;;;;;;;;;;;;;;;5049468;28;19909;-83
2022/06/28 00:25:58;;;;;;;;;;;;;;;;;;5047944;28;19913;-82
2022/06/28 00:28:23;;;;;;;;;;;17.10;99.90;;;;;;5050747;28;20058;-84
2022/06/28 00:30:49;;;;;;;;;;;16.80;99.90;;;;;;5052325;28;20331;-83
2022/06/28 00:33:15;;;;;;;;;;;;;;;;;;5049683;28;20789;-82
2022/06/28 00:35:41;;;;;;;;;;;;;;;;;;5046000;28;19915;-83
2022/06/28 00:38:06;;;;;;;;;;;;;;;;;;5046890;28;20471;-83
2022/06/28 00:40:32;;;;;;;;;;;;;;;;;;5045951;28;20000;-83
2022/06/28 00:42:58;;;;;;;;;;;;;;;;;;5047353;28;20605;-84
2022/06/28 00:45:25;;;;;;;;;;;;;;;;;;5046412;28;19909;-82
2022/06/28 00:47:50;;;;;;;;;;;;;;;;;;5050139;28;20015;-82
2022/06/28 00:50:16;;;;;;;;;;;;;;;;;;5042043;28;20135;-83
2022/06/28 00:52:42;;;;;;;;;;;;;;;;;;5046459;28;19974;-82
2022/06/28 00:55:08;;;;;;;;;;;17.00;99.90;;;;;;5048993;28;19956;-84
2022/06/28 00:57:33;;;;;;;;;;;16.70;99.90;;;;;;5051098;28;20273;-82
2022/06/28 00:59:59;;;;;;;;;;;16.80;99.90;;;;;;5047622;28;19909;-83
2022/06/28 01:02:24;;;;;;;;;;;;;;;;;;5051660;28;19917;-82
2022/06/28 01:04:50;;;;;;;;;;;17.00;99.90;;;;;;5037655;28;19948;-83
2022/06/28 01:07:15;;;;;;;;;;;17.00;99.90;;;;;;5048545;28;19916;-83
2022/06/28 01:09:41;;;;;;;;;;;16.90;99.90;;;;;;5043503;28;19978;-83
2022/06/28 01:12:07;;;;;;;;;;;;;;;;;;5050013;28;19909;-83
2022/06/28 01:14:32;;;;;;;;;;;16.90;99.90;;;;;;5045124;28;20370;-83
2022/06/28 01:16:58;;;;;;;;;;;;;;;;;;5046409;28;19915;-83
2022/06/28 01:19:24;;;;;;;;;;;;;;;;;;5041374;28;19931;-82
2022/06/28 01:21:50;;;;;;;;;;;;;;;;;;5051336;28;20015;-83
2022/06/28 01:24:16;;;;;;;;;;;;;;;;;;5043076;28;19963;-82
2022/06/28 01:26:43;;;;;;;;;;;;;;;;;;5054405;28;19909;-84
2022/06/28 01:29:09;;;;;;;;;;;;;;;;;;5050628;28;19915;-83
2022/06/28 01:31:35;;;;;;;;;;;;;;;;;;5041305;28;21898;-82
2022/06/28 01:34:01;;;;;;;;;;;;;;;;;;5047337;28;19944;-85
2022/06/28 01:36:26;;;;;;;;;;;17.00;99.90;;;;;;5044471;28;19963;-84
2022/06/28 01:38:52;;;;;;;;;;;;;;;;;;5046209;28;20274;-83
2022/06/28 01:41:33;;;;;;;;;;;16.90;99.90;;;;;;5047490;28;19916;-83
2022/06/28 01:43:59;;;;;;;;;;;;;;;;;;5052644;28;19987;-84
2022/06/28 01:46:25;;;;;;;;;;;17.00;99.90;;;;;;5038526;28;19967;-83
2022/06/28 01:48:51;;;;;;;;;;;;;;;;;;5047334;28;19915;-83
2022/06/28 01:51:16;;;;;;;;;;;16.90;99.90;;;;;;5047068;28;19924;-84
2022/06/28 01:53:42;;;;;;;;;;;;;;;;;;5054105;28;19954;-82
2022/06/28 01:56:08;;;;;;;;;;;;;;;;;;5049578;28;19909;-83
2022/06/28 01:58:33;;;;;;;;;;;16.90;99.90;;;;;;5048545;28;19913;-83
2022/06/28 02:00:59;;;;;;;;;;;17.00;99.90;;;;;;5048173;28;20344;-82
2022/06/28 02:03:24;;;;;;;;;;;17.00;99.90;;;;;;5048503;28;19917;-83
2022/06/28 02:05:50;;;;;;;;;;;;;;;;;;5044932;28;19996;-82
2022/06/28 02:08:16;;;;;;;;;;;;;;;;;;5053122;28;19923;-83
2022/06/28 02:10:42;;;;;;;;;;;;;;;;;;5055170;28;19947;-83
2022/06/28 02:13:08;;;;;;;;;;;;;;;;;;5047460;28;19909;-83
2022/06/28 02:15:34;;;;;;;;;;;16.80;99.90;;;;;;5050824;28;19982;-83
2022/06/28 02:17:59;;;;;;;;;;;16.80;99.90;;;;;;5050470;28;19917;-82
2022/06/28 02:20:25;;;;;;;;;;;;;;;;;;5046068;28;19948;-82
2022/06/28 02:22:51;;;;;;;;;;;;;;;;;;5057485;28;19971;-83
2022/06/28 02:25:17;;;;;;;;;;;;;;;;;;5053566;28;19908;-82
2022/06/28 02:27:43;;;;;;;;;;;;;;;;;;5048079;28;19940;-82
2022/06/28 02:30:09;;;;;;;;;;;;;;;;;;5051144;28;19921;-82
2022/06/28 02:32:34;;;;;;;;;;;16.80;99.90;;;;;;5054847;28;19913;-84
2022/06/28 02:40:29;;;;;;;;;;;16.40;99.90;;;;;;5056963;28;19973;-84
2022/06/28 02:42:55;;;;;;;;;;;;;;;;;;5050327;28;19912;-83
2022/06/28 02:45:21;;;;;;;;;;;16.70;99.90;;;;;;5054052;28;19913;-81
2022/06/28 02:47:47;;;;;;;;;;;;;;;;;;5053127;28;19908;-83
2022/06/28 02:50:13;;;;;;;;;;;;;;;;;;5049481;28;20381;-82
2022/06/28 02:52:39;;;;;;;;;;;;;;;;;;5049736;28;19912;-84
2022/06/28 02:55:06;;;;;;;;;;;;;;;;;;5049868;28;19913;-83
2022/06/28 02:57:32;;;;;;;;;;;;;;;;;;5055746;28;19908;-82
2022/06/28 02:59:57;;;;;;;;;;;16.60;99.90;;;;;;5059840;28;20021;-83
2022/06/28 03:02:23;;;;;;;;;;;;;;;;;;5047262;28;19908;-82
2022/06/28 03:04:49;;;;;;;;;;;;;;;;;;5049703;28;20327;-83
2022/06/28 03:07:15;;;;;;;;;;;;;;;;;;5051152;28;19921;-83
2022/06/28 03:09:41;;;;;;;;;;;16.30;99.90;;;;;;5058128;28;19950;-84
2022/06/28 03:12:06;;;;;;;;;;;15.20;99.90;;;;;;5053117;28;19921;-83
2022/06/28 03:14:32;;;;;;;;;;;15.10;99.90;;;;;;5051431;28;20082;-83
2022/06/28 03:16:58;;;;;;;;;;;16.10;99.90;;;;;;5058372;28;19993;-83
2022/06/28 03:19:24;;;;;;;;;;;15.10;99.90;;;;;;5058494;28;20368;-83
2022/06/28 03:21:49;;;;;;;;;;;;;;;;;;5049398;28;19913;-82
2022/06/28 03:24:15;;;;;;;;;;;16.20;99.90;;;;;;5049492;28;19916;-84
2022/06/28 03:26:40;;;;;;;;;;;14.90;99.90;;;;;;5052354;28;20372;-83
2022/06/28 03:29:06;;;;;;;;;;;15.00;99.90;;;;;;5045958;28;19912;-82
2022/06/28 03:31:31;;;;;;;;;;;15.40;99.90;;;;;;5052300;28;19913;-82
2022/06/28 03:33:57;;;;;;;;;;;;;;;;;;5058182;28;19913;-83
2022/06/28 03:36:23;;;;;;;;;;;;;;;;;;5048719;28;20361;-81
2022/06/28 03:38:49;;;;;;;;;;;;;;;;;;5056100;28;19968;-83
2022/06/28 03:41:22;;;;;;;;;;;15.70;99.90;;;;;;5044859;28;20381;-82
2022/06/28 03:43:48;;;;;;;;;;;;;;;;;;5054573;28;19913;-82
2022/06/28 03:46:13;;;;;;;;;;;14.90;99.90;;;;;;5047660;28;19943;-83
2022/06/28 03:48:39;;;;;;;;;;;;;;;;;;5052766;28;19916;-83
2022/06/28 03:51:05;;;;;;;;;;;;;;;;;;5040413;28;19927;-82
2022/06/28 03:53:30;;;;;;;;;;;14.90;99.90;;;;;;5058889;28;19909;-82
2022/06/28 03:55:56;;;;;;;;;;;;;;;;;;5056779;28;19917;-81
2022/06/28 03:58:22;;;;;;;;;;;;;;;;;;5053359;28;19919;-80
2022/06/28 04:00:47;;;;;;;;;;;15.30;99.90;;;;;;5047480;28;20392;-83
2022/06/28 04:03:13;;;;;;;;;;;16.00;99.90;;;;;;5053292;28;19920;-83
2022/06/28 04:05:39;;;;;;;;;;;;;;;;;;5042767;28;19934;-81
2022/06/28 04:08:05;;;;;;;;;;;;;;;;;;5047845;28;19967;-81
2022/06/28 04:10:30;;;;;;;;;;;16.20;99.90;;;;;;5050088;28;20043;-82
2022/06/28 04:12:56;;;;;;;;;;;;;;;;;;5054611;28;19939;-83
2022/06/28 04:15:21;;;;;;;;;;;16.30;99.90;;;;;;5047783;28;19909;-83
2022/06/28 04:17:47;;;;;;;;;;;;;;;;;;5037143;28;19916;-83
2022/06/28 04:20:13;;;;;;;;;;;;;;;;;;5040733;28;19908;-82
2022/06/28 04:22:39;;;;;;;;;;;15.40;99.90;;;;;;5051584;28;19917;-83
2022/06/28 04:25:04;;;;;;;;;;;;;;;;;;5049907;28;19970;-84
2022/06/28 04:27:30;;;;;;;;;;;;;;;;;;5039830;28;19908;-85
2022/06/28 04:29:59;;;;;;;;;;;;;;;;;;5039426;28;19923;-82
2022/06/28 04:32:25;;;;;;;;;;;16.70;99.90;;;;;;5041028;28;19909;-84
2022/06/28 04:34:50;;;;;;;;;;;;;;;;;;5044277;28;19912;-82
2022/06/28 04:37:16;;;;;;;;;;;17.00;99.90;;;;;;5039536;28;19952;-84
2022/06/28 04:39:42;;;;;;;;;;;;;;;;;;5042712;28;19917;-81
2022/06/28 04:42:08;;;;;;;;;;;;;;;;;;5050541;28;19912;-82
2022/06/28 04:44:33;;;;;;;;;;;17.20;99.90;;;;;;5040937;28;19909;-81
2022/06/28 04:46:59;;;;;;;;;;;;;;;;;;5041863;28;19928;-83
2022/06/28 04:49:25;;;;;;;;;;;;;;;;;;5048466;28;19963;-82
2022/06/28 04:51:51;;;;;;;;;;;;;;;;;;5041382;28;19920;-82
2022/06/28 04:54:17;;;;;;;;;;;;;;;;;;5042844;28;19913;-83
2022/06/28 04:56:42;;;;;;;;;;;17.60;99.90;;;;;;5047295;28;20520;-81
2022/06/28 04:59:08;;;;;;;;;;;17.60;99.90;;;;;;5040761;28;19943;-81
2022/06/28 05:01:34;;;;;;;;;;;;;;;;;;5043241;28;20683;-83
2022/06/28 05:04:00;;;;;;;;;;;;;;;;;;5044999;28;19912;-82
2022/06/28 05:06:25;;;;;;;;;;;;;;;;;;5043720;28;19998;-81
2022/06/28 05:08:52;;;;;;;;;;;17.60;99.90;;;;;;5039926;28;19919;-82
2022/06/28 05:11:17;;;;;;;;;;;17.80;99.90;;;;;;5041412;28;19932;-82
2022/06/28 05:13:43;;;;;;;;;;;17.20;99.90;;;;;;5040052;28;19908;-82
2022/06/28 05:16:08;;;;;;;;;;;17.30;99.90;;;;;;5040609;28;19908;-82
2022/06/28 05:18:34;;;;;;;;;;;17.20;99.90;;;;;;5042073;28;19940;-82
2022/06/28 05:20:59;;;;;;;;;;;17.10;99.90;;;;;;5046552;28;20521;-83
2022/06/28 05:23:25;;;;;;;;;;;;;;;;;;5046394;28;19924;-83
2022/06/28 05:25:51;;;;;;;;;;;;;;;;;;5047332;28;19935;-82
2022/06/28 05:28:16;;;;;;;;;;;16.90;99.90;;;;;;5039083;28;19917;-82
2022/06/28 05:30:42;;;;;;;;;;;;;;;;;;5049371;28;19965;-82
2022/06/28 05:33:08;;;;;;;;;;;;;;;;;;5046971;28;19916;-84
2022/06/28 05:35:34;;;;;;;;;;;;;;;;;;5037763;28;19908;-82
2022/06/28 05:38:00;;;;;;;;;;;16.60;99.90;;;;;;5045694;28;19912;-81
2022/06/28 05:40:26;;;;;;;;;;;15.60;99.90;;;;;;5048107;28;19980;-81
2022/06/28 05:42:51;;;;;;;;;;;15.60;99.90;;;;;;5042288;28;19931;-82
2022/06/28 05:45:17;;;;;;;;;;;;;;;;;;5054149;28;19917;-82
2022/06/28 05:47:43;;;;;;;;;;;;;;;;;;5050174;28;20564;-81
2022/06/28 05:50:09;;;;;;;;;;;16.50;99.90;;;;;;5050313;28;20014;-83
2022/06/28 05:52:34;;;;;;;;;;;16.90;99.90;;;;;;5051086;28;19912;-82
2022/06/28 05:55:00;;;;;;;;;;;16.90;99.90;;;;;;5047817;28;19917;-82
2022/06/28 05:57:25;;;;;;;;;;;17.00;99.90;;;;;;5048017;28;19965;-83
2022/06/28 05:59:51;;;;;;;;;;;17.00;99.90;;;;;;5043528;28;20015;-83
2022/06/28 06:02:16;;;;;;;;;;;;;;;;;;5048262;28;20040;-85
2022/06/28 06:04:42;;;;;;;;;;;16.90;99.90;;;;;;5044700;28;19935;-84
2022/06/28 06:07:07;;;;;;;;;;;17.30;99.90;;;;;;5046191;28;19957;-84
2022/06/28 06:09:33;;;;;;;;;;;;;;;;;;5049225;28;20256;-82
2022/06/28 06:11:59;;;;;;;;;;;17.80;99.90;;;;;;5053061;28;19927;-83
2022/06/28 06:14:24;;;;;;;;;;;18.40;99.90;;;;;;5045757;28;19924;-82
2022/06/28 06:16:53;;;;;;;;;;;19.80;99.90;;;;;;5050899;28;19913;-83
2022/06/28 06:19:19;;;;;;;2.72;0.73;;;;;;;;;;5046997;28;19909;-84
2022/06/28 06:21:45;;;;;;;1.15;0.73;;;;;;;;;;5047831;28;20071;-81
2022/06/28 06:24:11;;;;;;;1.42;0.82;;;;;;;;;;5047251;28;20152;-84
2022/06/28 06:26:37;;;;;;;3.53;0.63;;;;;;;;;;5052621;28;20124;-83
2022/06/28 06:29:03;;;;;;;0.75;0.47;;;;;;;;;;5043249;28;20039;-81
2022/06/28 06:31:29;;;;;;;3.63;0.75;;;;;;;;;;5042432;28;20484;-80
2022/06/28 06:33:55;;;;;;;0.63;0.30;;;;;;;;;;5049057;28;20112;-81
2022/06/28 06:36:22;;;;;;;0.45;0.20;;;;;;;;;;5041426;28;20052;-81
2022/06/28 06:38:48;;;;;;;0.22;0.17;;;;;;;;;;5042681;28;20029;-80
2022/06/28 06:41:14;;;;;;;0.73;0.20;;;;;;;;;;5042497;28;20457;-81
2022/06/28 06:43:39;;;;;;;0.68;0.30;;;33.60;72.90;;;;;;5048021;28;20059;-83
2022/06/28 06:46:05;;;;;;;0.75;0.20;;;;;;;;;;5044405;28;20602;-83
2022/06/28 06:48:31;;;;;;;2.15;0.30;;;;;;;;;;5055427;28;20024;-82
2022/06/28 06:50:57;;;;;;;0.47;0.22;;;;;;;;;;5043711;28;20600;-80
2022/06/28 06:53:23;;;;;;;1.35;0.30;;;;;;;;;;5051189;28;20112;-83
2022/06/28 06:55:49;;;;;;;0.00;0.00;;;;;;;;;;5049355;28;20024;-81
2022/06/28 06:58:15;;;;;;;0.82;0.30;;;;;;;;;;5052348;28;20032;-81
2022/06/28 07:00:41;;;;;;;1.00;0.38;;;;;;;;;;5044342;28;20067;-80
2022/06/28 07:03:08;;;;;;;0.70;0.15;;;;;;;;;;5045178;28;20036;-78
2022/06/28 07:05:34;;;;;;;0.28;0.20;;;;;;;;;;5042232;28;20026;-82
2022/06/28 07:07:59;;;;;;;0.93;0.20;;;;;;;;;;5041576;28;20040;-82
2022/06/28 07:10:25;;;;;;;0.20;0.20;;;;;;;;;;5041381;28;20128;-79
2022/06/28 07:12:51;;;;;;;0.93;0.13;;;;;;;;;;5041499;28;20442;-83
2022/06/28 07:15:18;;;;;;;0.52;0.10;;;;;;;;;;5042029;28;20053;-80
2022/06/28 07:17:43;;;;;;;0.63;0.30;;;40.70;45.90;;;;;;5041045;28;20533;-83
2022/06/28 07:20:10;;;;;;;0.75;0.50;;;39.50;37.60;;;;;;5042096;28;20116;-81
2022/06/28 07:22:35;;;;;;;0.28;0.20;;;39.60;43.60;;;;;;5036599;28;20057;-82
2022/06/28 07:25:01;;;;;;;0.52;0.13;;;;;;;;;;5038792;28;20056;-81
2022/06/28 07:27:27;;;;;;;0.20;0.10;;;39.40;37.40;;;;;;5036004;28;20071;-82
2022/06/28 07:29:53;;;;;;;;;;;40.00;37.40;;;;;;5034288;28;20037;-79
2022/06/28 07:32:19;;;;;;;;;;;40.20;38.30;;;;;;5048513;28;19916;-82
2022/06/28 07:34:44;;;;;;;;;;;39.70;35.10;;;;;;5048904;28;19927;-81
2022/06/28 07:37:10;;;;;;;;;;;39.50;37.10;;;;;;5052095;28;19982;-82
2022/06/28 07:39:36;;;;;;;;;;;;;;;;;;5045842;28;19912;-81
2022/06/28 07:42:02;;;;;;;;;;;36.70;37.10;;;;;;5042836;28;20065;-80
2022/06/28 07:44:27;;;;;;;;;;;35.50;39.70;;;;;;5044055;28;20001;-82
2022/06/28 07:46:53;;;;;;;;;;;36.10;41.40;;;;;;5046375;28;19959;-82
2022/06/28 07:49:18;;;;;;;;;;;34.90;41.20;;;;;;5045171;28;19935;-83
2022/06/28 07:54:28;;;;;;;;;;;34.90;43.60;;;;;;5047475;28;19916;-81
2022/06/28 07:56:53;;;;;;;;;;;35.00;40.90;;;;;;5044572;28;19912;-81
2022/06/28 07:59:19;;;;;;;;;;;34.90;42.20;;;;;;5042851;28;20011;-81
2022/06/28 08:01:44;;;;;;;;;;;34.50;43.80;;;;;;5042874;28;20361;-81
2022/06/28 08:04:11;;;;;;;;;;;34.20;41.50;;;;;;5045168;28;19909;-79
2022/06/28 08:06:37;;;;;;;;;;;33.80;42.60;;;;;;5056689;28;19913;-78
2022/06/28 08:09:03;;;;;;;;;;;33.30;42.20;;;;;;5054826;28;19909;-78
2022/06/28 08:11:28;;;;;;;;;;;32.90;43.40;;;;;;5058212;28;19917;-80
2022/06/28 08:13:54;;;;;;;;;;;32.10;45.70;;;;;;5046407;28;19944;-81
2022/06/28 08:16:20;;;;;;;;;;;29.90;46.60;;;;;;5041445;28;19917;-81
2022/06/28 08:18:46;;;;;;;;;;;28.80;49.20;;;;;;5047203;28;19912;-81
2022/06/28 08:21:12;;;;;;;;;;;27.70;52.70;;;;;;5042808;28;19931;-81
2022/06/28 08:23:37;;;;;;;;;;;27.20;52.80;;;;;;5040644;28;19920;-79
2022/06/28 08:26:02;;;;;;;;;;;27.00;55.00;;;;;;5051227;28;19909;-80
2022/06/28 08:28:28;;;;;;;;;;;27.00;53.90;;;;;;5043960;28;20303;-80
2022/06/28 08:30:53;;;;;;;;;;;27.00;54.10;;;;;;5052238;28;19917;-82
2022/06/28 08:33:19;;;;;;;;;;;26.90;54.80;;;;;;5046633;28;20369;-81
2022/06/28 08:35:45;;;;;;;;;;;27.70;52.80;;;;;;5042895;28;19912;-77
2022/06/28 08:38:10;;;;;;;;;;;27.10;52.70;;;;;;5045781;28;19928;-80
2022/06/28 08:40:36;;;;;;;;;;;27.40;54.50;;;;;;5040012;28;20296;-81
2022/06/28 08:43:04;;;;;;;;;;;28.60;54.00;;;;;;5042382;28;19920;-82
2022/06/28 08:45:30;;;;;;;;;;;29.80;52.50;;;;;;5043752;28;19920;-82
2022/06/28 08:47:56;;;;;;;;;;;31.10;46.80;;;;;;5034872;28;19912;-80
2022/06/28 08:50:31;;;;;;;;;;;31.60;44.70;;;;;;5045256;28;19939;-81
2022/06/28 08:52:59;;;;;;;;;;;34.20;40.50;;;;;;5045770;28;19923;-81
2022/06/28 08:55:25;;;;;;;;;;;34.40;39.70;;;;;;5047519;28;19923;-82
2022/06/28 08:57:51;;;;;;;;;;;35.30;35.90;;;;;;5043076;28;19908;-81
2022/06/28 09:00:16;;;;;;;;;;;35.50;37.90;;;;;;5044588;28;20434;-81
2022/06/28 09:02:42;;;;;;;;;;;37.40;35.20;;;;;;5044985;28;19942;-81
2022/06/28 09:05:07;;;;;;;;;;;37.40;35.40;;;;;;5056402;28;19958;-78
2022/06/28 09:07:33;;;;;;;;;;;36.90;35.70;;;;;;5058150;28;19916;-79
2022/06/28 09:09:58;;;;;;;;;;;35.90;35.60;;;;;;5056600;28;19913;-79
2022/06/28 09:12:24;;;;;;;;;;;36.30;35.00;;;;;;5056893;28;20915;-78
2022/06/28 09:14:49;;;;;;;;;;;36.90;36.50;;;;;;5048461;28;19915;-80
2022/06/28 09:17:21;;;;;;;;;;;36.50;36.80;;;;;;5049210;28;19982;-82
2022/06/28 09:19:47;;;;;;;;;;;35.90;34.40;;;;;;5041733;28;20266;-82
2022/06/28 09:22:27;;;;;;;;;;;36.30;34.80;;;;;;5047781;28;19956;-81
2022/06/28 09:24:53;;;;;;;;;;;37.70;30.80;;;;;;5046588;28;20304;-82
2022/06/28 09:27:26;;;;;;;;;;;36.90;32.40;;;;;;5042018;28;19909;-82
2022/06/28 09:29:52;;;;;;;;;;;34.80;35.30;;;;;;5041207;28;19919;-82
2022/06/28 09:32:24;;;;;;;;;;;33.90;38.50;;;;;;5039548;28;19913;-82
2022/06/28 09:34:54;;;;;;;;;;;32.60;41.70;;;;;;5045495;28;19916;-81
2022/06/28 09:37:34;;;;;;;;;;;30.90;40.90;;;;;;5054372;28;19908;-82
2022/06/28 09:40:17;;;;;;;;;;;29.30;44.30;;;;;;5049069;28;19924;-83
2022/06/28 09:42:43;;;;;;;;;;;29.60;47.90;;;;;;5046986;28;20377;-80
2022/06/28 09:45:10;;;;;;;;;;;27.60;49.30;;;;;;5047873;28;20392;-82
2022/06/28 09:47:40;;;;;;;;;;;26.90;52.50;;;;;;5045036;28;19909;-82
2022/06/28 09:50:06;;;;;;;;;;;26.60;52.60;;;;;;5049250;28;19909;-81
2022/06/28 09:52:31;;;;;;;;;;;26.40;54.00;;;;;;5042465;28;20387;-81
2022/06/28 09:54:59;;;;;;;;;;;26.30;54.50;;;;;;5048442;28;20007;-81
2022/06/28 09:57:24;;;;;;;;;;;26.10;55.40;;;;;;5033539;28;20383;-80
2022/06/28 09:59:50;;;;;;;;;;;25.60;56.50;;;;;;5042371;28;19908;-82
2022/06/28 10:02:16;;;;;;;;;;;25.20;56.70;;;;;;5043936;28;19924;-81
2022/06/28 10:04:43;;;;;;;;;;;25.40;55.10;;;;;;5037347;28;19919;-82
2022/06/28 10:07:09;;;;;;;;;;;25.70;53.50;;;;;;5037219;28;20396;-82
2022/06/28 10:09:35;;;;;;;;;;;25.70;53.00;;;;;;5043562;28;19959;-82
2022/06/28 10:15:01;;;;;;;;;;;;;;;;;;5048094;28;19920;-80
2022/06/28 10:17:41;;;;;;;;;;;25.90;49.80;;;;;;5042261;28;19916;-81
2022/06/28 10:20:07;;;;;;;;;;;;;;;;;;5042644;28;19917;-80
2022/06/28 10:22:33;;;;;;;;;;;;;;;;;;5037806;28;19917;-79
2022/06/28 10:24:59;;;;;;;;;;;25.90;47.70;;;;;;5041511;28;19920;-80
2022/06/28 10:27:26;;;;;;;;;;;25.90;44.90;;;;;;5045944;28;20013;-82
2022/06/28 10:29:57;;;;;;;;;;;25.80;48.30;;;;;;5046451;28;19939;-81
2022/06/28 10:32:39;;;;;;;;;;;25.90;48.20;;;;;;5049957;28;19924;-82
2022/06/28 10:35:04;;;;;;;;;;;26.00;47.50;;;;;;5052931;28;20058;-81
2022/06/28 10:37:30;;;;;;;;;;;26.10;51.80;;;;;;5047103;28;19999;-81
2022/06/28 10:40:14;;;;;;;;;;;25.90;48.60;;;;;;5049775;28;20166;-81
2022/06/28 10:42:52;;;;;;;;;;;25.60;52.20;;;;;;5046666;28;19909;-81
2022/06/28 10:45:20;;;;;;;;;;;25.90;51.90;;;;;;5052448;28;19920;-81
2022/06/28 10:47:46;;;;;;;;;;;;;;;;;;5053345;28;19916;-79
2022/06/28 10:50:12;;;;;;;;;;;26.00;50.10;;;;;;5048096;28;19909;-81
2022/06/28 10:52:37;;;;;;;;;;;25.60;52.10;;;;;;5044467;28;19913;-79
2022/06/28 10:55:05;;;;;;;;;;;25.80;53.50;;;;;;5042566;28;19912;-82
2022/06/28 10:57:34;;;;;;;;;;;25.80;56.80;;;;;;5049362;28;19912;-82
2022/06/28 11:00:00;;;;;;;;;;;;;;;;;;5047168;28;19927;-81
2022/06/28 11:02:52;;;;;;;;;;;25.80;53.50;;;;;;5053629;28;19952;-80
2022/06/28 11:05:18;;;;;;;;;;;25.60;52.30;;;;;;5046955;28;19912;-81
2022/06/28 11:07:56;;;;;;;;;;;25.70;51.50;;;;;;5051923;28;19916;-80
2022/06/28 11:10:21;;;;;;;;;;;25.40;53.30;;;;;;5046009;28;19920;-80
2022/06/28 11:12:47;;;;;;;;;;;25.70;51.60;;;;;;5043573;28;20163;-81
2022/06/28 11:15:35;;;;;;;;;;;25.50;52.70;;;;;;5044552;28;19916;-81
2022/06/28 11:18:01;;;;;;;;;;;25.60;54.50;;;;;;5043878;28;19962;-80
2022/06/28 11:20:28;;;;;;;;;;;25.60;52.00;;;;;;5049398;28;20360;-79
2022/06/28 11:22:53;;;;;;;;;;;25.90;52.30;;;;;;5052506;28;19909;-81
2022/06/28 11:25:21;;;;;;;;;;;26.10;52.50;;;;;;5046331;28;19951;-79
2022/06/28 11:27:56;;;;;;;;;;;26.00;52.40;;;;;;5048155;28;19917;-80
2022/06/28 11:30:27;;;;;;;;;;;26.00;51.20;;;;;;5046272;28;19917;-80
2022/06/28 11:32:53;;;;;;;;;;;;;;;;;;5050607;28;19913;-79
2022/06/28 11:35:19;;;;;;;;;;;;;;;;;;5044382;28;20007;-79
2022/06/28 11:37:52;;;;;;;;;;;25.20;53.80;;;;;;5044172;28;20712;-80
2022/06/28 11:40:19;;;;;;;;;;;25.90;51.90;;;;;;5049473;28;20372;-79
2022/06/28 11:42:45;;;;;;;;;;;26.20;51.50;;;;;;5049548;28;19909;-80
2022/06/28 11:45:12;;;;;;;;;;;25.90;50.50;;;;;;5052189;28;19916;-80
2022/06/28 11:47:40;;;;;;;;;;;25.40;50.40;;;;;;5045407;28;20569;-79
2022/06/28 11:50:14;;;;;;;;;;;25.90;52.50;;;;;;5046424;28;20042;-79
2022/06/28 11:52:52;;;;;;;;;;;26.10;51.50;;;;;;5044005;28;20789;-79
2022/06/28 11:55:19;;;;;;;;;;;26.30;51.40;;;;;;5049808;28;19909;-80
2022/06/28 11:57:45;;;;;;;;;;;;;;;;;;5045639;28;19919;-79
2022/06/28 12:00:13;;;;;;;;;;;;;;;;;;5055631;28;20351;-78
2022/06/28 12:02:41;;;;;;;;;;;26.40;50.70;;;;;;5053212;28;19904;-82
2022/06/28 12:05:06;;;;;;;;;;;26.40;52.40;;;;;;5050041;28;19923;-80
2022/06/28 12:07:36;;;;;;;;;;;26.50;51.10;;;;;;5053925;28;19909;-80
2022/06/28 12:10:01;;;;;;;;;;;26.60;51.20;;;;;;5050757;28;19908;-78
2022/06/28 12:12:28;;;;;;;;;;;26.50;49.90;;;;;;5048401;28;20475;-80
2022/06/28 12:14:57;;;;;;;;;;;26.50;50.40;;;;;;5049613;28;19916;-80
2022/06/28 12:17:22;;;;;;;;;;;26.40;50.20;;;;;;5049934;28;19935;-80
2022/06/28 12:19:48;;;;;;;;;;;26.50;52.90;;;;;;5045876;28;19909;-80
2022/06/28 12:22:16;;;;;;;;;;;26.70;50.10;;;;;;5043920;28;19915;-81
2022/06/28 12:24:44;;;;;;;;;;;26.70;51.10;;;;;;5054665;28;19909;-81
2022/06/28 12:27:10;;;;;;;;;;;;;;;;;;5054639;28;19905;-79
2022/06/28 12:29:35;;;;;;;;;;;26.90;49.20;;;;;;5050402;28;20286;-81
2022/06/28 12:32:01;;;;;;;;;;;27.70;50.30;;;;;;5042815;28;19948;-78
2022/06/28 12:34:26;;;;;;;;;;;27.10;49.20;;;;;;5047436;28;19912;-78
2022/06/28 12:36:52;;;;;;;;;;;27.50;50.50;;;;;;5044134;28;20353;-79
2022/06/28 12:39:17;;;;;;;;;;;27.40;50.60;;;;;;5049863;28;19923;-79
2022/06/28 12:41:43;;;;;;;;;;;;;;;;;;5053829;28;20411;-80
2022/06/28 12:44:09;;;;;;;;;;;26.90;51.40;;;;;;5044853;28;19917;-79
2022/06/28 12:46:34;;;;;;;;;;;27.10;50.80;;;;;;5045376;28;19944;-81
2022/06/28 12:49:00;;;;;;;;;;;27.20;50.30;;;;;;5050018;28;19916;-79
2022/06/28 12:51:26;;;;;;;;;;;27.00;48.90;;;;;;5036633;28;20399;-80
2022/06/28 12:53:51;;;;;;;;;;;26.80;49.70;;;;;;5039077;28;19908;-81
2022/06/28 12:56:17;;;;;;;;;;;26.80;49.50;;;;;;5049358;28;19917;-79
2022/06/28 12:58:44;;;;;;;;;;;27.00;50.70;;;;;;5053104;28;19913;-80
2022/06/28 13:01:10;;;;;;;;;;;;;;;;;;5049491;28;20106;-79
2022/06/28 13:03:36;;;;;;;;;;;;;;;;;;5047074;28;20381;-80
2022/06/28 13:06:01;;;;;;;;;;;26.80;52.20;;;;;;5043590;28;19924;-79
2022/06/28 13:08:27;;;;;;;;;;;26.80;51.20;;;;;;5045953;28;20030;-81
2022/06/28 13:10:52;;;;;;;;;;;26.90;50.00;;;;;;5048512;28;19920;-80
2022/06/28 13:13:22;;;;;;;;;;;26.90;49.40;;;;;;5049645;28;19919;-79
2022/06/28 13:15:48;;;;;;;;;;;26.90;49.40;;;;;;5045667;28;19908;-81
2022/06/28 13:18:13;;;;;;;;;;;26.90;51.10;;;;;;5043460;28;19917;-78
2022/06/28 13:20:39;;;;;;;;;;;27.00;48.80;;;;;;5042797;28;20088;-80
2022/06/28 13:23:04;;;;;;;;;;;27.20;50.50;;;;;;5043233;28;19952;-81
2022/06/28 13:25:30;;;;;;;;;;;27.30;50.40;;;;;;5045520;28;20366;-80
2022/06/28 13:27:55;;;;;;;;;;;27.20;49.80;;;;;;5049089;28;19916;-79
2022/06/28 13:30:21;;;;;;;;;;;27.30;49.70;;;;;;5042097;28;19921;-79
2022/06/28 13:32:46;;;;;;;;;;;26.90;48.20;;;;;;5044532;28;20307;-79
2022/06/28 13:35:12;;;;;;;;;;;27.20;48.00;;;;;;5043768;28;20011;-80
2022/06/28 13:37:38;;;;;;;;;;;27.00;49.30;;;;;;5050082;28;20282;-81
2022/06/28 13:40:04;;;;;;;;;;;26.90;49.20;;;;;;5050393;28;19908;-80
2022/06/28 13:42:29;;;;;;;;;;;27.10;50.70;;;;;;5044971;28;19909;-79
2022/06/28 13:44:54;;;;;;;;;;;28.20;52.40;;;;;;5042032;28;19913;-80
2022/06/28 13:47:21;;;;;;;;;;;27.30;48.20;;;;;;5044290;28;19921;-79
2022/06/28 13:49:47;;;;;;;;;;;27.60;46.90;;;;;;5043886;28;19919;-81
2022/06/28 13:52:13;;;;;;;0.30;0.20;;;;;;;;;;5034772;28;19931;-79
2022/06/28 13:54:38;;;;;;;2.28;0.40;;;27.20;60.70;;;;;;5044421;28;20029;-81
2022/06/28 13:57:05;;;;;;;0.75;0.30;;;27.20;49.00;;;;;;5056522;28;20082;-76
2022/06/28 13:59:31;;;;;;;7.68;1.35;;;;;;;;;;5057999;28;21300;-78
2022/06/28 14:01:57;;;;;;;3.38;1.00;;;;;;;;;;5052338;28;20044;-78
2022/06/28 14:04:23;;;;;;;2.20;0.90;;;;;;;;;;5058254;28;20864;-78
2022/06/28 14:06:48;;;;;;;2.25;0.45;;;27.10;64.30;;;;;;5047357;28;20131;-80
2022/06/28 14:09:14;;;;;;;0.70;0.43;;;;;;;;;;5045074;28;20466;-81
2022/06/28 14:11:40;;;;;;;6.07;1.75;;;;;;;;;;5045253;28;20128;-78
2022/06/28 14:14:06;;;;;;;6.85;2.45;;;;;;;;;;5044046;28;20144;-79
2022/06/28 14:16:33;;;;;;;2.35;0.65;;;;;;;;;;5043781;28;20128;-80
2022/06/28 14:18:59;;;;;;;1.40;0.43;;;;;;;;;;5033845;28;20021;-78
2022/06/28 14:21:25;;;;;;;6.68;2.78;;;27.00;60.30;;;;;;5037635;28;20127;-80
2022/06/28 14:23:50;;;;;;;0.30;0.13;;;27.70;59.40;;;;;;5044585;28;20116;-79
2022/06/28 14:26:16;;;;;;;2.45;0.25;;;;;;;;;;5042439;28;20443;-79
2022/06/28 14:28:42;;;;;;;3.70;0.82;;;;;;;;;;5039387;28;20547;-80
2022/06/28 14:31:08;;;;;;;0.50;0.30;;;;;;;;;;5038911;28;20047;-79
2022/06/28 14:33:34;;;;;;;1.17;0.32;;;;;;;;;;5044835;28;20076;-80
2022/06/28 14:36:00;;;;;;;2.15;0.57;;;26.60;58.10;;;;;;5040944;28;20159;-79
2022/06/28 14:38:26;;;;;;;0.95;0.38;;;27.80;49.90;;;;;;5043669;28;20029;-80
2022/06/28 14:40:52;;;;;;;1.27;0.30;;;;;;;;;;5037880;28;20491;-81
2022/06/28 14:43:19;;;;;;;3.83;0.82;;;27.20;48.70;;;;;;5039801;28;20029;-80
2022/06/28 14:45:45;;;;;;;0.50;0.10;;;;;;;;;;5040077;28;20140;-82
2022/06/28 14:48:11;;;;;;;0.73;0.20;;;;;;;;;;5049663;28;20132;-81
2022/06/28 14:50:37;;;;;;;2.75;1.33;;;27.10;54.60;;;;;;5036214;28;20032;-81
2022/06/28 14:53:09;;;;;;;1.83;0.88;;;27.70;48.90;;;;;;5034883;28;20037;-79
2022/06/28 14:55:35;;;;;;;0.82;0.20;;;;;;;;;;5039277;28;20032;-81
2022/06/28 14:58:01;;;;;;;6.53;1.60;;;;;;;;;;5036095;28;20180;-78